Time;durP1;ratioP1;P1;durP2;ratioP2;P2;SDS_P1;SDS_P2;PMS_P1;PMS_P2;Temp;Humidity;BMP_temperature;BMP_pressure;BME280_temperature;BME280_humidity;BME280_pressure;Samples;Min_cycle;Max_cycle;Signal;HPM_P1;HPM_P2
2022/01/26 00:07:49;;;;;;;25.38;9.02;;;;;;;1.19;100.00;102711.28;5036385;28;20043;-52
2022/01/26 00:10:14;;;;;;;25.35;10.85;;;;;;;1.16;100.00;102693.13;5036590;28;20390;-53
2022/01/26 00:12:39;;;;;;;24.00;9.88;;;;;;;1.17;100.00;102687.00;5024508;28;20509;-52
2022/01/26 00:15:05;;;;;;;23.08;9.23;;;;;;;1.16;100.00;102674.84;5033980;28;20116;-51
2022/01/26 00:17:30;;;;;;;30.27;10.15;;;;;;;1.15;100.00;102681.84;5035929;28;20053;-53
2022/01/26 00:28:32;;;;;;;22.17;8.80;;;;;;;1.13;100.00;102685.44;5039793;28;20056;-52
2022/01/26 00:38:44;;;;;;;29.13;8.40;;;;;;;1.12;100.00;102676.78;5038146;28;20448;-52
2022/01/26 00:41:14;;;;;;;18.88;6.63;;;;;;;1.12;100.00;102675.94;5037598;28;20036;-53
2022/01/26 00:43:46;;;;;;;30.50;10.23;;;;;;;1.12;100.00;102671.53;5033038;28;20032;-55
2022/01/26 00:46:11;;;;;;;;;;;;;;;1.11;100.00;102669.88;5037766;28;20041;-51
2022/01/26 00:48:38;;;;;;;26.90;9.18;;;;;;;1.09;100.00;102659.47;5033707;28;19921;-54
2022/01/26 00:51:06;;;;;;;25.05;7.90;;;;;;;1.10;100.00;102665.53;5039184;28;20107;-50
2022/01/26 00:53:35;;;;;;;24.90;9.02;;;;;;;1.12;100.00;102674.16;5035513;28;20055;-52
2022/01/26 00:56:03;;;;;;;32.03;12.38;;;;;;;1.12;100.00;102662.88;5023679;28;20045;-53
2022/01/26 00:58:29;;;;;;;31.88;10.55;;;;;;;1.12;100.00;102662.88;5038917;28;20047;-49
2022/01/26 01:00:55;;;;;;;22.05;10.13;;;;;;;1.13;100.00;102662.78;5038004;28;20481;-53
2022/01/26 01:03:21;;;;;;;30.40;9.63;;;;;;;1.12;100.00;102666.31;5038147;28;20033;-49
2022/01/26 01:05:59;;;;;;;27.90;11.82;;;;;;;1.12;100.00;102661.09;5039010;28;20541;-50
2022/01/26 01:08:26;;;;;;;25.70;9.02;;;;;;;1.13;100.00;102652.31;5038364;28;20117;-49
2022/01/26 01:10:53;;;;;;;24.73;8.63;;;;;;;1.15;100.00;102653.09;5035575;28;20470;-49
2022/01/26 01:13:23;;;;;;;22.75;9.63;;;;;;;1.16;100.00;102651.31;5036582;28;20056;-52
2022/01/26 01:15:50;;;;;;;22.73;9.23;;;;;;;1.16;100.00;102652.19;5038619;28;20033;-51
2022/01/26 01:18:29;;;;;;;25.25;9.70;;;;;;;1.17;100.00;102646.03;5038116;28;20452;-55
2022/01/26 01:21:23;;;;;;;24.80;9.30;;;;;;;1.18;100.00;102645.09;5037784;28;20130;-49
2022/01/26 01:29:11;;;;;;;19.95;7.72;;;;;;;1.18;100.00;102646.88;5040508;28;20052;-49
2022/01/26 01:31:53;;;;;;;23.63;11.05;;;;;;;1.17;100.00;102655.66;5040166;28;20037;-52
2022/01/26 01:34:30;;;;;;;24.27;9.18;;;;;;;1.22;100.00;102653.66;5037716;28;20037;-51
2022/01/26 01:37:02;;;;;;;25.13;9.38;;;;;;;1.23;100.00;102647.50;5037163;28;20036;-52
2022/01/26 01:39:29;;;;;;;22.70;9.20;;;;;;;1.22;100.00;102649.25;5036861;28;20037;-52
2022/01/26 01:41:55;;;;;;;24.10;7.65;;;;;;;1.22;100.00;102648.44;5039667;28;20526;-50
2022/01/26 01:44:22;;;;;;;25.90;8.90;;;;;;;1.23;100.00;102637.88;5039134;28;20059;-52
2022/01/26 01:46:49;;;;;;;26.70;10.10;;;;;;;1.23;100.00;102644.88;5037249;28;20074;-51
2022/01/26 01:49:15;;;;;;;21.88;10.48;;;;;;;1.23;100.00;102639.66;5036481;28;20107;-55
2022/01/26 01:51:48;;;;;;;24.35;9.98;;;;;;;1.23;100.00;102644.88;5039225;28;20029;-52
2022/01/26 01:54:16;;;;;;;25.25;12.35;;;;;;;1.25;100.00;102648.25;5038324;28;20156;-52
2022/01/26 01:56:43;;;;;;;24.30;9.88;;;;;;;1.24;100.00;102642.19;5035567;28;20088;-53
2022/01/26 01:59:10;;;;;;;21.77;7.45;;;;;;;1.22;100.00;102641.44;5042506;28;20025;-52
2022/01/26 02:01:35;;;;;;;30.52;11.00;;;;;;;1.22;100.00;102644.03;5050616;28;20546;-50
2022/01/26 02:04:01;;;;;;;20.30;9.82;;;;;;;1.23;100.00;102634.41;5058185;28;20029;-51
2022/01/26 02:06:26;;;;;;;28.33;10.40;;;;;;;1.23;100.00;102630.03;5049344;28;20043;-54
2022/01/26 02:08:51;;;;;;;28.10;10.07;;;;;;;1.20;100.00;102613.69;5029821;28;20035;-52
2022/01/26 02:11:17;;;;;;;24.00;9.40;;;;;;;1.17;100.00;102611.22;5055467;28;20028;-52
2022/01/26 02:54:34;;;;;;;27.63;8.15;;;;;;;0.95;100.00;102641.00;5055552;28;20037;-52
2022/01/26 02:59:57;;;;;;;31.92;11.02;;;;;;;0.98;100.00;102646.13;5027435;28;20044;-53
2022/01/26 03:02:32;;;;;;;23.08;8.57;;;;;;;0.97;100.00;102639.19;5056868;28;20024;-54
2022/01/26 03:05:00;;;;;;;20.25;7.63;;;;;;;0.95;100.00;102635.78;5045238;28;20411;-53
2022/01/26 03:10:05;;;;;;;23.10;8.05;;;;;;;0.97;100.00;102636.56;5054082;28;20504;-51
2022/01/26 03:12:46;;;;;;;25.33;9.40;;;;;;;0.96;100.00;102634.06;5052423;28;20064;-51
2022/01/26 03:15:20;;;;;;;20.02;7.78;;;;;;;0.97;100.00;102628.72;5045131;28;21463;-51
2022/01/26 03:20:28;;;;;;;23.17;9.35;;;;;;;0.99;100.00;102619.06;5055863;28;20041;-55
2022/01/26 03:28:26;;;;;;;21.52;9.20;;;;;;;1.11;100.00;102614.13;5058018;28;20048;-52
2022/01/26 03:36:24;;;;;;;27.85;10.20;;;;;;;1.15;100.00;102602.59;5045217;28;20048;-52
2022/01/26 03:38:58;;;;;;;28.00;9.23;;;;;;;1.16;100.00;102596.44;5039643;28;20036;-52
2022/01/26 03:41:39;;;;;;;23.35;9.20;;;;;;;1.15;100.00;102598.22;5041373;28;20537;-51
2022/01/26 03:44:06;;;;;;;20.42;8.75;;;;;;;1.17;100.00;102603.38;5030740;28;20386;-54
2022/01/26 03:46:32;;;;;;;28.90;10.60;;;;;;;1.17;100.00;102582.47;5048258;28;20567;-51
2022/01/26 03:48:57;;;;;;;28.52;10.40;;;;;;;1.16;100.00;102593.84;5051074;28;20037;-49
2022/01/26 03:51:22;;;;;;;17.42;8.18;;;;;;;1.16;100.00;102588.59;5057551;28;20060;-54
2022/01/26 03:53:48;;;;;;;17.25;8.20;;;;;;;1.16;100.00;102586.88;5048252;28;20035;-54
2022/01/26 03:56:13;;;;;;;25.25;8.95;;;;;;;1.15;100.00;102577.31;5052426;28;20036;-52
2022/01/26 03:58:39;;;;;;;18.08;8.27;;;;;;;1.15;100.00;102566.88;5057292;28;20025;-51
2022/01/26 04:01:04;;;;;;;29.27;10.75;;;;;;;1.18;100.00;102563.25;5056695;28;20033;-52
2022/01/26 04:03:29;;;;;;;18.75;9.52;;;;;;;1.21;100.00;102573.53;5050244;28;20286;-51
2022/01/26 04:05:55;;;;;;;22.33;8.25;;;;;;;1.22;100.00;102578.69;5054677;28;20031;-54
2022/01/26 04:08:26;;;;;;;27.90;11.13;;;;;;;1.20;100.00;102582.31;5055360;28;20032;-55
2022/01/26 04:13:37;;;;;;;23.50;9.52;;;;;;;1.11;100.00;102591.47;5026238;28;20041;-55
2022/01/26 04:16:04;;;;;;;18.33;8.52;;;;;;;1.11;100.00;102601.94;5049611;28;20461;-54
2022/01/26 04:18:35;;;;;;;20.65;8.60;;;;;;;1.11;100.00;102582.78;5056074;28;20502;-52
2022/01/26 04:21:16;;;;;;;24.63;8.90;;;;;;;1.13;100.00;102594.00;5052873;28;20029;-52
2022/01/26 04:23:56;;;;;;;22.80;9.10;;;;;;;1.13;100.00;102607.91;5039803;28;20021;-54
2022/01/26 04:29:11;;;;;;;20.33;8.40;;;;;;;1.15;100.00;102623.50;5056047;28;20090;-50
2022/01/26 04:31:36;;;;;;;23.50;8.48;;;;;;;1.15;100.00;102615.69;5049722;28;20445;-53
2022/01/26 04:34:02;;;;;;;26.20;9.40;;;;;;;1.16;100.00;102601.69;5051300;28;20037;-51
2022/01/26 04:36:36;;;;;;;22.42;9.13;;;;;;;1.16;100.00;102607.78;5053469;28;20036;-54
2022/01/26 04:39:07;;;;;;;29.13;9.93;;;;;;;1.18;100.00;102618.97;5033051;28;20037;-54
2022/01/26 04:44:29;;;;;;;25.17;7.90;;;;;;;1.23;100.00;102626.59;5041202;28;20041;-56
2022/01/26 04:46:51;;;;;;;18.52;7.82;;;;;;;1.23;100.00;102627.41;5048812;28;20069;-51
2022/01/26 04:49:17;;;;;;;22.88;8.88;;;;;;;1.22;100.00;102627.50;5058356;28;20401;-52
2022/01/26 04:51:43;;;;;;;23.48;8.85;;;;;;;1.22;100.00;102624.91;5032876;28;20033;-55
2022/01/26 04:54:09;;;;;;;22.98;7.72;;;;;;;1.23;100.00;102609.13;5053157;28;20032;-54
2022/01/26 04:56:35;;;;;;;23.08;9.05;;;;;;;1.24;100.00;102596.91;5057302;28;20541;-55
2022/01/26 04:59:00;;;;;;;27.20;10.13;;;;;;;1.26;100.00;102600.28;5049777;28;20124;-53
2022/01/26 05:01:25;;;;;;;20.73;9.40;;;;;;;1.25;100.00;102589.00;5058282;28;20119;-56
2022/01/26 05:03:51;;;;;;;23.10;9.20;;;;;;;1.26;100.00;102582.00;5054912;28;20063;-51
2022/01/26 05:06:16;;;;;;;24.67;7.80;;;;;;;1.33;100.00;102593.81;5050997;28;20036;-51
2022/01/26 05:08:41;;;;;;;27.55;9.75;;;;;;;1.37;100.00;102599.72;5021684;28;20040;-50
2022/01/26 05:11:10;;;;;;;21.95;9.32;;;;;;;1.38;100.00;102588.38;5054474;28;20035;-52
2022/01/26 05:13:36;;;;;;;23.23;10.43;;;;;;;1.36;100.00;102593.66;5053418;28;20021;-53
2022/01/26 05:16:02;;;;;;;20.65;6.95;;;;;;;1.34;100.00;102597.28;5038105;28;20492;-54
2022/01/26 05:18:29;;;;;;;26.05;10.85;;;;;;;1.32;100.00;102605.22;5048071;28;20040;-54
2022/01/26 05:20:56;;;;;;;19.33;9.30;;;;;;;1.30;100.00;102591.38;5058691;28;20151;-52
2022/01/26 05:23:21;;;;;;;17.40;7.38;;;;;;;1.29;100.00;102607.97;5051804;28;20039;-55
2022/01/26 05:25:47;;;;;;;24.77;8.80;;;;;;;1.29;100.00;102615.81;5042385;28;20064;-57
2022/01/26 05:28:12;;;;;;;20.02;7.93;;;;;;;1.33;100.00;102614.75;5045246;28;20035;-52
2022/01/26 05:30:37;;;;;;;22.50;8.10;;;;;;;1.35;100.00;102615.50;5039762;28;20017;-53
2022/01/26 05:33:04;;;;;;;24.58;8.98;;;;;;;1.35;100.00;102618.13;5035568;28;20474;-52
2022/01/26 05:35:30;;;;;;;17.63;6.82;;;;;;;1.35;100.00;102619.91;5037108;28;20175;-54
2022/01/26 05:37:55;;;;;;;22.73;7.90;;;;;;;1.33;100.00;102619.13;5038203;28;20604;-51
2022/01/26 05:40:21;;;;;;;20.55;7.53;;;;;;;1.31;100.00;102619.19;5036538;28;20051;-51
2022/01/26 05:42:46;;;;;;;17.90;8.45;;;;;;;1.32;100.00;102620.91;5039876;28;20066;-51
2022/01/26 05:45:23;;;;;;;20.75;7.18;;;;;;;1.32;100.00;102605.22;5040385;28;20028;-52
2022/01/26 05:47:48;;;;;;;22.23;8.77;;;;;;;1.33;100.00;102608.66;5033672;28;20036;-49
2022/01/26 05:50:14;;;;;;;20.80;8.43;;;;;;;1.32;100.00;102597.38;5041251;28;20054;-51
2022/01/26 05:52:39;;;;;;;18.50;8.85;;;;;;;1.31;100.00;102591.28;5042281;28;20162;-53
2022/01/26 05:55:05;;;;;;;14.50;6.63;;;;;;;1.32;100.00;102584.31;5035894;28;20159;-54
2022/01/26 05:57:30;;;;;;;21.42;7.68;;;;;;;1.34;100.00;102590.28;5009382;28;20466;-52
2022/01/26 05:59:55;;;;;;;20.40;8.55;;;;;;;1.35;100.00;102599.81;5040807;28;20048;-50
2022/01/26 06:02:23;;;;;;;20.42;7.40;;;;;;;1.37;100.00;102603.22;5012761;28;20078;-52
2022/01/26 06:04:49;;;;;;;15.77;6.03;;;;;;;1.37;100.00;102602.34;5041352;28;20032;-54
2022/01/26 06:07:14;;;;;;;17.67;8.02;;;;;;;1.38;100.00;102612.72;5029554;28;20037;-52
2022/01/26 06:09:39;;;;;;;25.80;9.13;;;;;;;1.41;100.00;102601.28;5038093;28;20033;-52
2022/01/26 06:12:05;;;;;;;23.27;8.75;;;;;;;1.46;100.00;102600.09;5039275;28;20124;-51
2022/01/26 06:14:32;;;;;;;20.85;8.70;;;;;;;1.50;100.00;102596.41;5040797;28;20038;-51
2022/01/26 06:16:57;;;;;;;22.73;8.23;;;;;;;1.51;100.00;102598.09;5037735;28;20041;-49
2022/01/26 06:19:22;;;;;;;24.40;8.57;;;;;;;1.51;100.00;102603.31;5039542;28;20083;-54
2022/01/26 06:21:48;;;;;;;20.52;7.97;;;;;;;1.53;100.00;102613.72;5041557;28;20052;-52
2022/01/26 06:24:13;;;;;;;21.50;9.23;;;;;;;1.56;100.00;102613.53;5035078;28;20039;-55
2022/01/26 06:26:40;;;;;;;31.45;10.77;;;;;;;1.58;100.00;102613.47;5034680;28;20050;-56
2022/01/26 06:29:06;;;;;;;25.23;9.38;;;;;;;1.59;100.00;102602.91;5034677;28;20029;-53
2022/01/26 06:31:34;;;;;;;23.33;8.25;;;;;;;1.62;100.00;102601.91;5043760;28;20113;-52
2022/01/26 06:34:02;;;;;;;14.93;7.80;;;;;;;1.60;100.00;102604.63;5035528;28;20028;-52
2022/01/26 06:36:27;;;;;;;18.60;8.13;;;;;;;1.57;100.00;102593.47;5037261;28;20493;-55
2022/01/26 06:38:53;;;;;;;22.25;7.63;;;;;;;1.54;100.00;102591.84;5033328;28;20033;-53
2022/01/26 06:41:23;;;;;;;21.48;9.60;;;;;;;1.57;100.00;102591.69;5038437;28;20022;-50
2022/01/26 06:43:54;;;;;;;29.00;10.55;;;;;;;1.61;100.00;102603.69;5046342;28;20025;-54
2022/01/26 06:46:53;;;;;;;22.25;9.30;;;;;;;1.65;100.00;102601.75;5043072;28;20060;-54
2022/01/26 06:51:40;;;;;;;23.90;12.18;;;;;;;1.69;100.00;102605.91;5058354;28;20057;-54
2022/01/26 06:54:05;;;;;;;39.60;13.95;;;;;;;1.67;100.00;102602.53;5061025;28;20117;-55
2022/01/26 06:56:30;;;;;;;33.38;13.35;;;;;;;1.68;100.00;102596.38;5062182;28;20036;-54
2022/01/26 06:58:56;;;;;;;26.67;12.13;;;;;;;1.67;100.00;102597.28;5052648;28;20041;-52
2022/01/26 07:01:21;;;;;;;24.05;9.93;;;;;;;1.67;100.00;102603.34;5061243;28;20060;-52
2022/01/26 07:03:47;;;;;;;19.67;9.45;;;;;;;1.68;100.00;102604.22;5057035;28;20162;-52
2022/01/26 07:06:12;;;;;;;22.17;8.68;;;;;;;1.70;100.00;102618.03;5054609;28;20033;-53
2022/01/26 07:08:37;;;;;;;20.83;9.05;;;;;;;1.70;100.00;102632.00;5047718;28;20033;-51
2022/01/26 07:11:03;;;;;;;18.95;8.10;;;;;;;1.69;100.00;102621.59;5051581;28;20040;-50
2022/01/26 07:13:28;;;;;;;23.67;10.48;;;;;;;1.66;100.00;102619.16;5049348;28;20060;-51
2022/01/26 07:21:28;;;;;;;24.20;9.57;;;;;;;1.77;100.00;102636.88;5043607;28;20110;-53
2022/01/26 07:23:55;;;;;;;20.63;9.75;;;;;;;1.80;100.00;102634.09;5041603;28;20041;-53
2022/01/26 07:26:21;;;;;;;21.60;7.68;;;;;;;1.76;100.00;102630.81;5047888;28;20539;-50
2022/01/26 07:28:47;;;;;;;23.05;9.02;;;;;;;1.75;100.00;102632.56;5037709;28;20112;-51
2022/01/26 07:31:13;;;;;;;28.58;9.90;;;;;;;1.79;100.00;102632.44;5043126;28;20120;-54
2022/01/26 07:33:39;;;;;;;20.60;9.05;;;;;;;1.81;100.00;102630.53;5046795;28;20048;-49
2022/01/26 07:36:05;;;;;;;22.13;8.77;;;;;;;1.78;100.00;102634.16;5051279;28;20127;-53
2022/01/26 07:38:33;;;;;;;24.30;10.00;;;;;;;1.77;100.00;102635.09;5044085;28;20045;-55
2022/01/26 07:40:58;;;;;;;21.83;8.82;;;;;;;1.78;100.00;102639.41;5043699;28;20052;-55
2022/01/26 07:43:25;;;;;;;19.27;8.73;;;;;;;1.81;100.00;102633.16;5044009;28;20138;-52
2022/01/26 07:46:06;;;;;;;22.77;8.35;;;;;;;1.84;100.00;102641.72;5051115;28;20031;-55
2022/01/26 07:48:32;;;;;;;22.27;9.40;;;;;;;1.84;100.00;102641.72;5051730;28;20033;-52
2022/01/26 07:50:57;;;;;;;20.63;8.35;;;;;;;1.83;100.00;102645.25;5044577;28;20033;-54
2022/01/26 07:53:22;;;;;;;20.88;8.52;;;;;;;1.82;100.00;102650.56;5040521;28;20102;-50
2022/01/26 07:55:49;;;;;;;21.40;9.70;;;;;;;1.83;100.00;102660.94;5049585;28;20025;-53
2022/01/26 07:58:15;;;;;;;23.70;10.00;;;;;;;1.81;100.00;102651.47;5048125;28;20051;-49
2022/01/26 08:00:40;;;;;;;16.33;6.65;;;;;;;1.80;100.00;102655.88;5038459;28;20034;-51
2022/01/26 08:03:08;;;;;;;16.65;7.60;;;;;;;1.80;100.00;102657.66;5044223;28;20049;-51
2022/01/26 08:05:34;;;;;;;17.55;7.05;;;;;;;1.79;100.00;102648.97;5043984;28;20039;-52
2022/01/26 08:07:59;;;;;;;16.55;7.22;;;;;;;1.79;100.00;102648.97;5041472;28;20482;-53
2022/01/26 08:10:24;;;;;;;16.55;6.68;;;;;;;1.80;100.00;102647.19;5042072;28;20025;-51
2022/01/26 08:12:50;;;;;;;16.02;6.45;;;;;;;1.84;100.00;102641.72;5043618;28;20064;-51
2022/01/26 08:15:15;;;;;;;16.88;7.00;;;;;;;1.85;100.00;102647.78;5044413;28;20028;-51
2022/01/26 08:17:41;;;;;;;19.60;8.30;;;;;;;1.92;100.00;102652.63;5046782;28;20111;-50
2022/01/26 08:20:08;;;;;;;18.08;8.32;;;;;;;1.96;100.00;102646.31;5044565;28;20025;-55
2022/01/26 08:22:34;;;;;;;22.35;8.55;;;;;;;2.04;100.00;102645.03;5062252;28;20052;-51
2022/01/26 08:25:00;;;;;;;21.20;8.98;;;;;;;2.08;100.00;102649.19;5060180;28;20032;-54
2022/01/26 08:27:28;;;;;;;22.90;8.52;;;;;;;2.15;100.00;102655.78;5052678;28;20032;-49
2022/01/26 08:30:02;;;;;;;17.75;7.47;;;;;;;2.15;100.00;102640.06;5061062;28;20036;-55
2022/01/26 08:32:28;;;;;;;28.17;9.93;;;;;;;2.16;100.00;102652.22;5063995;28;20060;-53
2022/01/26 08:34:53;;;;;;;20.33;8.82;;;;;;;2.17;100.00;102646.06;5061520;28;20393;-51
2022/01/26 08:37:19;;;;;;;18.98;9.02;;;;;;;2.20;100.00;102651.13;5053337;28;20390;-51
2022/01/26 08:39:45;;;;;;;18.23;7.70;;;;;;;2.24;100.00;102657.03;5053975;28;20025;-52
2022/01/26 08:42:10;;;;;;;27.85;9.90;;;;;;;2.33;100.00;102667.03;5049981;28;20033;-50
2022/01/26 08:44:36;;;;;;;20.60;10.00;;;;;;;2.36;100.00;102661.63;5062070;28;20024;-52
2022/01/26 08:47:03;;;;;;;23.58;9.65;;;;;;;2.39;100.00;102659.66;5055784;28;20557;-55
2022/01/26 08:49:30;;;;;;;26.02;10.00;;;;;;;2.39;100.00;102659.66;5053281;28;20393;-51
2022/01/26 08:51:55;;;;;;;23.52;8.70;;;;;;;2.45;100.00;102657.63;5046742;28;20508;-51
2022/01/26 08:54:22;;;;;;;21.85;9.02;;;;;;;2.50;100.00;102648.59;5061898;28;20037;-53
2022/01/26 08:56:49;;;;;;;24.35;11.32;;;;;;;2.56;100.00;102650.03;5049987;28;20044;-50
2022/01/26 08:59:14;;;;;;;21.70;9.02;;;;;;;2.60;100.00;102646.31;5057251;28;20540;-53
2022/01/26 09:01:40;;;;;;;20.73;10.93;;;;;;;2.67;100.00;102644.19;5044612;28;20032;-52
2022/01/26 09:04:06;;;;;;;21.85;9.43;;;;;;;2.73;100.00;102649.91;5049374;28;20029;-52
2022/01/26 09:06:33;;;;;;;22.40;11.10;;;;;;;2.84;100.00;102657.19;5056040;28;20024;-53
2022/01/26 09:09:05;;;;;;;24.40;10.35;;;;;;;2.92;100.00;102654.09;5045821;28;20150;-50
2022/01/26 09:11:30;;;;;;;23.42;10.10;;;;;;;2.98;100.00;102649.38;5038536;28;20045;-52
2022/01/26 09:13:58;;;;;;;28.45;12.70;;;;;;;3.06;100.00;102647.13;5043174;28;20030;-50
2022/01/26 09:16:25;;;;;;;25.67;11.02;;;;;;;3.11;100.00;102649.50;5044569;28;20034;-50
2022/01/26 09:18:55;;;;;;;25.17;11.65;;;;;;;3.15;100.00;102643.16;5040869;28;20846;-52
2022/01/26 09:21:24;;;;;;;22.48;11.05;;;;;;;3.21;100.00;102636.72;5039862;28;20033;-55
2022/01/26 09:23:50;;;;;;;28.95;12.43;;;;;;;3.25;100.00;102643.44;5032438;28;20072;-55
2022/01/26 09:26:17;;;;;;;28.70;12.48;;;;;;;3.27;100.00;102642.41;5037826;28;20467;-56
2022/01/26 09:28:42;;;;;;;21.60;9.52;;;;;;;3.36;100.00;102634.97;5038699;28;20112;-54
2022/01/26 09:31:08;;;;;;;20.55;10.13;;;;;;;3.43;100.00;102633.63;5045617;28;20047;-53
2022/01/26 09:33:33;;;;;;;23.13;9.25;;;;;;;3.48;100.00;102635.06;5045240;28;20033;-52
2022/01/26 09:35:58;;;;;;;24.30;10.23;;;;;;;3.55;100.00;102635.53;5046278;28;20516;-54
2022/01/26 09:38:24;;;;;;;29.08;12.10;;;;;;;3.59;100.00;102641.44;5045498;28;20053;-52
2022/01/26 09:40:50;;;;;;;25.50;11.30;;;;;;;3.63;100.00;102635.91;5023951;28;20485;-54
2022/01/26 09:43:17;;;;;;;29.52;10.75;;;;;;;3.67;100.00;102641.84;5027847;28;20128;-49
2022/01/26 09:45:46;;;;;;;28.05;10.95;;;;;;;3.73;100.00;102641.44;5039205;28;20020;-53
2022/01/26 09:48:13;;;;;;;39.58;15.32;;;;;;;3.77;100.00;102634.22;5048543;28;20021;-53
2022/01/26 09:50:42;;;;;;;38.83;15.27;;;;;;;3.79;100.00;102629.72;5050956;28;20099;-54
2022/01/26 09:53:10;;;;;;;44.15;15.75;;;;;;;3.82;100.00;102632.16;5035828;28;20025;-53
2022/01/26 09:55:40;;;;;;;34.85;14.05;;;;;;;3.87;100.00;102627.47;5035680;28;20028;-55
2022/01/26 09:58:05;;;;;;;24.00;12.18;;;;;;;3.93;100.00;102632.38;5033587;28;20213;-56
2022/01/26 10:00:31;;;;;;;29.60;12.40;;;;;;;3.99;100.00;102626.72;5031853;28;20076;-54
2022/01/26 10:02:58;;;;;;;23.45;11.27;;;;;;;4.02;100.00;102625.69;5041783;28;20431;-52
2022/01/26 10:05:24;;;;;;;29.45;14.40;;;;;;;4.06;100.00;102625.41;5052485;28;20021;-49
2022/01/26 10:08:09;;;;;;;31.85;13.45;;;;;;;4.12;100.00;102629.41;5044349;28;20052;-52
2022/01/26 10:16:57;;;;;;;29.63;12.10;;;;;;;4.39;100.00;102632.09;5036852;28;20040;-52
2022/01/26 10:19:09;;;;;;;24.05;12.55;;;;;;;4.51;100.00;102652.31;5046438;28;20045;-50
2022/01/26 10:21:48;;;;;;;28.60;13.60;;;;;;;4.58;100.00;102653.59;5057144;28;20374;-54
2022/01/26 10:24:15;;;;;;;21.63;10.43;;;;;;;4.61;100.00;102646.47;5050019;28;20039;-55
2022/01/26 10:26:46;;;;;;;20.95;9.82;;;;;;;4.63;100.00;102652.47;5043534;28;20044;-54
2022/01/26 10:29:12;;;;;;;25.60;11.02;;;;;;;4.65;100.00;102655.84;5045247;28;20547;-50
2022/01/26 10:31:41;;;;;;;26.73;11.38;;;;;;;4.65;100.00;102650.59;5052664;28;20047;-50
2022/01/26 10:34:19;;;;;;;22.33;9.95;;;;;;;4.70;100.00;102640.59;5048576;28;20028;-56
2022/01/26 10:36:56;;;;;;;20.13;10.13;;;;;;;4.68;100.00;102642.50;5046435;28;20056;-53
2022/01/26 10:39:36;;;;;;;18.30;9.82;;;;;;;4.58;100.00;102634.38;5045390;28;20450;-55
2022/01/26 10:42:07;;;;;;;27.48;12.82;;;;;;;4.56;100.00;102639.72;5046411;28;20555;-54
2022/01/26 10:44:37;;;;;;;26.13;11.48;;;;;;;4.57;100.00;102625.66;5047647;28;20091;-53
2022/01/26 10:47:05;;;;;;;22.97;10.83;;;;;;;4.64;100.00;102633.97;5045408;28;20029;-52
2022/01/26 10:49:54;;;;;;;23.50;9.15;;;;;;;4.75;100.00;102639.38;5050681;28;20038;-49
2022/01/26 10:54:49;;;;;;;17.67;9.37;;;;;;;4.82;100.00;102642.44;5037011;28;20091;-50
2022/01/26 10:57:16;;;;;;;25.80;10.88;;;;;;;4.99;100.00;102642.19;5029165;28;20297;-54
2022/01/26 10:59:49;;;;;;;23.70;10.25;;;;;;;5.21;100.00;102646.00;5048920;28;20520;-49
2022/01/26 11:02:34;;;;;;;26.42;11.27;;;;;;;5.39;100.00;102644.75;5056645;28;20044;-54
2022/01/26 11:05:00;;;;;;;24.67;9.88;;;;;;;5.52;100.00;102638.66;5042193;28;20043;-53
2022/01/26 11:07:37;;;;;;;21.10;8.88;;;;;;;5.59;100.00;102632.88;5039699;28;20627;-52
2022/01/26 11:10:06;;;;;;;22.13;8.43;;;;;;;5.67;100.00;102637.59;5042985;28;20064;-50
2022/01/26 11:12:33;;;;;;;18.88;9.05;;;;;;;5.65;100.00;102634.22;5037996;28;20402;-55
2022/01/26 11:15:12;;;;;;;20.42;7.63;;;;;;;5.58;100.00;102633.00;5030103;28;20395;-51
2022/01/26 11:17:44;;;;;;;12.02;6.80;;;;;;;5.60;100.00;102631.94;5057240;28;20032;-53
2022/01/26 11:20:34;;;;;;;15.70;7.20;;;;;;;5.65;100.00;102621.06;5050352;28;20040;-53
2022/01/26 11:23:03;;;;;;;14.70;6.93;;;;;;;5.65;100.00;102607.91;5046933;28;20079;-56
2022/01/26 11:25:30;;;;;;;12.10;7.10;;;;;;;5.67;100.00;102598.97;5047206;28;20556;-54
2022/01/26 11:28:02;;;;;;;16.40;8.20;;;;;;;5.73;100.00;102602.97;5056066;28;20044;-56
2022/01/26 11:30:33;;;;;;;17.05;7.72;;;;;;;5.78;100.00;102587.72;5029694;28;20037;-53
2022/01/26 11:33:00;;;;;;;16.10;6.83;;;;;;;5.76;100.00;102588.75;5044853;28;20436;-53
2022/01/26 11:35:31;;;;;;;17.75;8.57;;;;;;;5.76;100.00;102584.34;5051400;28;20039;-54
2022/01/26 11:38:18;;;;;;;21.83;9.40;;;;;;;5.81;100.00;102584.00;5043519;28;20045;-54
2022/01/26 11:46:34;;;;;;;14.18;6.00;;;;;;;5.90;100.00;102578.91;5047653;28;20036;-54
2022/01/26 11:49:10;;;;;;;14.85;7.60;;;;;;;5.96;100.00;102579.47;5050779;28;20036;-50
2022/01/26 11:51:46;;;;;;;12.80;6.60;;;;;;;6.02;100.00;102581.69;5047692;28;20129;-56
2022/01/26 11:54:20;;;;;;;16.73;7.65;;;;;;;6.07;100.00;102572.50;5041853;28;20037;-54
2022/01/26 11:57:02;;;;;;;15.15;7.07;;;;;;;6.07;100.00;102575.13;5041788;28;20037;-54
2022/01/26 11:59:31;;;;;;;23.48;7.53;;;;;;;6.09;100.00;102564.47;5043557;28;20075;-55
2022/01/26 12:02:04;;;;;;;14.80;7.90;;;;;;;6.13;100.00;102555.41;5049219;28;20072;-54
2022/01/26 12:04:35;;;;;;;16.95;8.00;;;;;;;6.19;100.00;102549.66;5042282;28;20113;-53
2022/01/26 12:07:20;;;;;;;21.25;8.40;;;;;;;6.26;100.00;102564.09;5034609;28;20036;-56
2022/01/26 12:09:46;;;;;;;15.00;6.80;;;;;;;6.26;100.00;102550.91;5051496;28;20028;-55
2022/01/26 12:12:22;;;;;;;17.00;8.43;;;;;;;6.26;100.00;102544.81;5050851;28;20052;-53
2022/01/26 12:15:03;;;;;;;21.55;8.70;;;;;;;6.23;100.00;102542.41;5049605;28;20060;-52
2022/01/26 12:17:33;;;;;;;12.48;6.57;;;;;;;6.25;100.00;102546.59;5048285;28;20060;-55
2022/01/26 12:34:43;;;;;;;14.95;6.63;;;;;;;6.59;100.00;102504.56;5043876;28;20536;-57
2022/01/26 12:45:07;;;;;;;20.85;7.88;;;;;;;6.71;100.00;102497.53;5047343;28;20116;-57
2022/01/26 12:47:34;;;;;;;23.50;8.23;;;;;;;6.84;100.00;102487.75;5037991;28;20025;-55
2022/01/26 12:50:00;;;;;;;13.48;7.35;;;;;;;6.91;100.00;102481.00;5046337;28;20128;-54
2022/01/26 12:52:26;;;;;;;16.67;6.38;;;;;;;7.00;100.00;102466.28;5046369;28;20068;-56
2022/01/26 12:54:51;;;;;;;10.20;5.45;;;;;;;6.96;100.00;102462.22;5043707;28;20029;-53
2022/01/26 12:57:17;;;;;;;12.95;6.47;;;;;;;7.03;100.00;102459.94;5041872;28;20086;-50
2022/01/26 12:59:43;;;;;;;11.80;6.00;;;;;;;7.08;100.00;102453.34;5042131;28;20402;-54
2022/01/26 13:02:10;;;;;;;13.55;6.32;;;;;;;7.05;100.00;102444.81;5021035;28;20025;-52
2022/01/26 13:04:35;;;;;;;16.95;6.47;;;;;;;7.10;100.00;102440.88;5030523;28;20437;-52
2022/01/26 13:07:01;;;;;;;19.63;7.47;;;;;;;7.34;100.00;102443.38;5031918;28;20029;-53
2022/01/26 13:09:29;;;;;;;22.65;7.93;;;;;;;7.40;100.00;102442.03;5042633;28;20593;-52
2022/01/26 13:11:59;;;;;;;17.70;7.07;;;;;;;7.35;100.00;102429.22;5045674;28;20059;-55
2022/01/26 13:14:41;;;;;;;14.63;6.22;;;;;;;7.39;100.00;102429.81;5043514;28;20043;-56
2022/01/26 13:25:26;;;;;;;10.40;4.55;;;;;;;7.63;100.00;102427.84;5047324;28;20052;-56
2022/01/26 13:36:07;;;;;;;12.48;5.22;;;;;;;7.59;100.00;102422.91;5035103;28;20029;-55
2022/01/26 13:39:00;;;;;;;12.05;4.70;;;;;;;7.58;100.00;102430.00;5033320;28;20036;-56
2022/01/26 13:52:46;;;;;;;11.70;4.75;;;;;;;7.68;100.00;102405.50;5039624;28;20042;-51
2022/01/26 13:58:05;;;;;;;11.50;5.45;;;;;;;7.46;100.00;102399.34;5051680;28;20115;-55
2022/01/26 14:00:38;;;;;;;8.57;4.57;;;;;;;7.38;100.00;102407.00;5042676;28;20037;-57
2022/01/26 14:03:06;;;;;;;7.55;4.22;;;;;;;7.56;100.00;102405.56;5040126;28;20041;-57
2022/01/26 14:05:31;;;;;;;10.43;4.82;;;;;;;7.70;100.00;102395.66;5039152;28;20603;-54
2022/01/26 14:07:57;;;;;;;10.40;4.22;;;;;;;7.86;100.00;102399.56;5040667;28;20041;-56
2022/01/26 14:10:23;;;;;;;11.63;5.22;;;;;;;7.86;100.00;102390.78;5035309;28;20028;-53
2022/01/26 14:12:49;;;;;;;10.75;5.40;;;;;;;7.92;100.00;102394.72;5034096;28;20036;-54